SKRGFACT

Guest
Details From SKRG - Jose Maria Cordova
To FACT - Cape Town International
Flight Number -
Tags Generated
Created
Modified
Stats Distance 5,812 nm / 10,765 km
Max Altitude 0 ft / 0 m
Waypoints 5
Social Downloads 0
Likes 0
Share VATSIM

Download

Looking for another format? Having issues loading an existing format? Contact us
Advertisement - Login to hide

Notes

Generated

Route

SKRG BOMAL OLEAR R1726 FACT

ID Type Via Altitude Latitude Longitude Leg Dist Tot Dist Heading (true) Name
O SKRG APT - 0 ft / 0 m 6.18036˚ -75.42323˚ - 0 nm - -
BOMAL FIX - 0 ft / 0 m -10.34317˚ -50.88983˚ 1771 nm 1771 nm 124° / 123° -
OLEAR FIX - 0 ft / 0 m -14.47217˚ -44.39883˚ 454 nm 2225 nm 124° / 122° -
R1726 FIX - 0 ft / 0 m -33.95984˚ 18.60005˚ 3586 nm 5812 nm 121° / 93° -
O FACT APT - 0 ft / 0 m -33.96149˚ 18.59772˚ 0 nm 5812 nm 229° / 229° -

Altitude Profile

Advertisement - Login to hide

Weather


0- 5 10 15 20 25 30 35+ Temperature / ° C

Clouds and Precipitation
Forecast for 2017-12-14 00:00 UTC. Updated 2 hours ago

Ground ~20,000 ft ~40,000 ft Winds

SKRG

Details ICAO SKRG (MDE)
Name JOSE MARIA CORDOVA
Region Colombia
Timezone America/Bogota (UTC-5.0)
Stats Elevation 6,955 ft / 2,120 m (AMSL)
Location 6.164532° -75.423119°
Runways 1
Magnetic Variation 6.630° W

METAR

SKRG 132000Z 11008KT 9999 FEW020TCU 21/13 A3023 RMK TCU/SW

Decode

TAF

Not found

Departure Runways

ID Width Length Bearing (true) Bearing (mag) Surface Threshold Offset Overrun Length
18 148 ft / 45 m 11,547 ft / 3,520 m 179.62° 186.25° Asphalt 0 ft / 0 m 98 ft / 30 m
36 148 ft / 45 m 11,547 ft / 3,520 m 359.62° 6.25° Asphalt 0 ft / 0 m 98 ft / 30 m

FACT

Details ICAO FACT (CPT)
Name Cape Town International
Region South Africa
Timezone Africa/Johannesburg (UTC+2.0)
Stats Elevation 151 ft / 46 m (AMSL)
Location -33.970501° 18.604405°
Runways 2
Magnetic Variation 25.343° W

METAR

FACT 132000Z 32004KT 280V350 9999 FEW020 BKN030 16/14 Q1018 NOSIG

Decode

TAF

Not found

Destination Runways

ID Width Length Bearing (true) Bearing (mag) Surface Threshold Offset Overrun Length
01 200 ft / 61 m 10,527 ft / 3,209 m 345.27° 10.61° Asphalt 0 ft / 0 m 195 ft / 59 m
16 151 ft / 46 m 5,586 ft / 1,703 m 135.35° 160.69° Asphalt 300 ft / 91 m 0 ft / 0 m
19 200 ft / 61 m 10,527 ft / 3,209 m 165.27° 190.61° Asphalt 0 ft / 0 m 195 ft / 59 m
34 151 ft / 46 m 5,586 ft / 1,703 m 315.35° 340.69° Asphalt 300 ft / 91 m 0 ft / 0 m

Approach Navaids

Runway Type Ident Frequency Range Bearing (true) Bearing (mag) Slope Elevation
01 Localiser CTI 110.30 MHz 18 nm / 33 km 345.21° 10.56° - 151 ft / 46 m (AMSL)
01 Glidescope CTI 110.30 MHz 10 nm / 19 km 345.27° 10.61° 3.00° 151 ft / 46 m (AMSL)
01 DME CTI 110.30 MHz 18 nm / 33 km - - - 151 ft / 46 m (AMSL)
19 Localiser KSI 109.10 MHz 18 nm / 33 km 165.33° 190.67° - 151 ft / 46 m (AMSL)
19 Glidescope KSI 109.10 MHz 10 nm / 19 km 165.27° 190.61° 3.20° 151 ft / 46 m (AMSL)
19 DME KSI 109.10 MHz 18 nm / 33 km - - - 151 ft / 46 m (AMSL)